Time;durP1;ratioP1;P1;durP2;ratioP2;P2;SDS_P1;SDS_P2;PMS_P1;PMS_P2;Temp;Humidity;BMP_temperature;BMP_pressure;BME280_temperature;BME280_humidity;BME280_pressure;Samples;Min_cycle;Max_cycle;Signal;HPM_P1;HPM_P2
2023/11/28 00:01:21;;;;;;;;;;;;;;;2.45;91.37;97710.16;5115166;28;20292;-74
2023/11/28 00:03:50;;;;;;;;;;;;;;;2.47;91.98;97711.00;5114686;28;19968;-75
2023/11/28 00:06:19;;;;;;;;;;;;;;;2.52;91.77;97714.34;5115197;28;19919;-72
2023/11/28 00:08:47;;;;;;;;;;;;;;;2.54;90.93;97712.66;5113115;28;20243;-72
2023/11/28 00:11:17;;;;;;;;;;;;;;;2.56;90.91;97711.00;5114005;28;19989;-72
2023/11/28 00:13:46;;;;;;;;;;;;;;;2.55;91.46;97709.31;5115316;28;19927;-73
2023/11/28 00:16:15;;;;;;;;;;;;;;;2.55;91.42;97704.28;5113934;28;20254;-72
2023/11/28 00:18:45;;;;;;;;;;;;;;;2.53;91.00;97695.91;5114769;28;19924;-72
2023/11/28 00:21:14;;;;;;;;;;;;;;;2.53;90.57;97700.94;5113983;28;19920;-72
2023/11/28 00:23:42;;;;;;;;;;;;;;;2.54;91.28;97695.03;5114812;28;19924;-72
2023/11/28 00:26:11;;;;;;;;;;;;;;;2.55;91.16;97688.34;5114619;28;20328;-72
2023/11/28 00:28:55;;;;;;;;;;;;;;;2.52;90.42;97684.16;5114785;27;19973;-72
2023/11/28 00:31:24;;;;;;;;;;;;;;;2.49;90.53;97679.13;5114683;28;20422;-72
2023/11/28 00:33:54;;;;;;;;;;;;;;;2.49;90.97;97675.78;5113663;28;19923;-71
2023/11/28 00:36:23;;;;;;;;;;;;;;;2.46;90.19;97664.03;5114988;28;20430;-72
2023/11/28 00:38:53;;;;;;;;;;;;;;;2.47;90.70;97668.22;5114573;28;20444;-71
2023/11/28 00:41:24;;;;;;;;;;;;;;;2.46;90.59;97656.47;5114506;28;19919;-71
2023/11/28 00:43:52;;;;;;;;;;;;;;;2.48;90.80;97657.31;5114969;28;19919;-71
2023/11/28 00:46:22;;;;;;;;;;;;;;;2.46;91.14;97653.97;5113257;28;19920;-72
2023/11/28 00:48:50;;;;;;;;;;;;;;;2.43;90.88;97651.44;5114254;28;20354;-72
2023/11/28 00:51:20;;;;;;;;;;;;;;;2.41;91.06;97649.78;5114427;28;19920;-71
2023/11/28 00:53:49;;;;;;;;;;;;;;;2.40;90.89;97643.88;5113255;28;20340;-71
2023/11/28 00:56:21;;;;;;;;;;;;;;;2.39;90.73;97647.28;5113338;28;20282;-71
2023/11/28 00:58:49;;;;;;;;;;;;;;;2.37;91.19;97643.91;5113642;28;19923;-71
2023/11/28 01:01:19;;;;;;;;;;;;;;;2.37;90.60;97638.03;5114347;28;19919;-71
2023/11/28 01:03:47;;;;;;;;;;;;;;;2.37;90.93;97643.06;5096394;28;19927;-71
2023/11/28 01:06:16;;;;;;;;;;;;;;;2.33;91.28;97634.69;5113161;28;20404;-71
2023/11/28 01:08:46;;;;;;;;;;;;;;;2.35;91.08;97630.47;5114330;28;19920;-71
2023/11/28 01:11:16;;;;;;;;;;;;;;;2.35;91.47;97625.44;5113687;28;19919;-71
2023/11/28 01:13:45;;;;;;;;;;;;;;;2.36;91.57;97622.09;5113402;28;20023;-71
2023/11/28 01:16:14;;;;;;;;;;;;;;;2.35;91.38;97615.38;5114035;28;20365;-70
2023/11/28 01:18:42;;;;;;;;;;;;;;;2.35;90.75;97617.09;5114451;28;20023;-70
2023/11/28 01:21:11;;;;;;;;;;;;;;;2.35;90.96;97620.41;5116872;28;19920;-71
2023/11/28 01:23:40;;;;;;;;;;;;;;;2.33;91.29;97609.50;5117492;28;19924;-70
2023/11/28 01:26:09;;;;;;;;;;;;;;;2.34;91.00;97606.16;5118547;28;19942;-71
2023/11/28 01:28:38;;;;;;;;;;;;;;;2.34;91.12;97598.63;5117520;28;20001;-71
2023/11/28 01:31:07;;;;;;;;;;;;;;;2.35;91.86;97592.72;5117313;28;19920;-71
2023/11/28 01:33:36;;;;;;;;;;;;;;;2.36;91.56;97586.88;5116962;28;19955;-71
2023/11/28 01:36:05;;;;;;;;;;;;;;;2.37;92.08;97588.56;5118401;28;20027;-71
2023/11/28 01:38:34;;;;;;;;;;;;;;;2.37;91.30;97583.53;5118459;28;19923;-70
2023/11/28 01:41:02;;;;;;;;;;;;;;;2.39;92.04;97575.97;5117206;28;19926;-71
2023/11/28 01:43:32;;;;;;;;;;;;;;;2.37;91.92;97578.50;5117064;28;19968;-71
2023/11/28 01:46:04;;;;;;;;;;;;;;;2.39;91.82;97581.84;5099961;28;20014;-72
2023/11/28 01:48:33;;;;;;;;;;;;;;;2.39;92.32;97576.81;5116437;28;20439;-71
2023/11/28 01:51:02;;;;;;;;;;;;;;;2.37;91.78;97568.44;5117845;28;20265;-71
2023/11/28 01:53:31;;;;;;;;;;;;;;;2.36;91.57;97564.22;5117800;28;20391;-71
2023/11/28 01:56:00;;;;;;;;;;;;;;;2.36;91.64;97565.88;5117840;28;20014;-71
2023/11/28 01:58:29;;;;;;;;;;;;;;;2.40;91.83;97558.31;5116507;28;19942;-71
2023/11/28 02:01:00;;;;;;;;;;;;;;;2.41;92.63;97562.53;5117325;28;19920;-71
2023/11/28 02:03:29;;;;;;;;;;;;;;;2.41;92.79;97554.97;5117122;28;20284;-72
2023/11/28 02:05:58;;;;;;;;;;;;;;;2.42;91.88;97556.66;5116671;28;19963;-71
2023/11/28 02:08:27;;;;;;;;;;;;;;;2.43;92.50;97558.31;5118145;28;20341;-71
2023/11/28 02:10:56;;;;;;;;;;;;;;;2.46;92.73;97548.25;5116306;28;20289;-71
2023/11/28 02:13:24;;;;;;;;;;;;;;;2.43;92.87;97548.25;5116169;28;20506;-72
2023/11/28 02:15:54;;;;;;;;;;;;;;;2.43;92.24;97543.22;5116284;28;19919;-72
2023/11/28 02:18:25;;;;;;;;;;;;;;;2.45;92.17;97539.03;5116451;28;19919;-71
2023/11/28 02:20:54;;;;;;;;;;;;;;;2.43;92.27;97538.19;5117416;28;19963;-72
2023/11/28 02:23:22;;;;;;;;;;;;;;;2.43;92.27;97528.13;5117154;28;19926;-71
2023/11/28 02:25:52;;;;;;;;;;;;;;;2.45;93.07;97523.06;5117181;28;19919;-72
2023/11/28 02:28:24;;;;;;;;;;;;;;;2.42;92.93;97518.91;5098811;28;20272;-71
2023/11/28 02:30:53;;;;;;;;;;;;;;;2.41;93.19;97514.72;5117486;28;19982;-71
2023/11/28 02:33:22;;;;;;;;;;;;;;;2.41;92.77;97514.72;5116187;28;19969;-72
2023/11/28 02:35:52;;;;;;;;;;;;;;;2.36;92.53;97501.31;5116155;28;19927;-72
2023/11/28 02:38:20;;;;;;;;;;;;;;;2.32;93.36;97497.13;5116916;28;19919;-72
2023/11/28 02:40:49;;;;;;;;;;;;;;;2.34;92.79;97497.97;5117510;28;19942;-72
2023/11/28 02:43:18;;;;;;;;;;;;;;;2.34;93.24;97485.38;5116966;28;19919;-71
2023/11/28 02:45:48;;;;;;;;;;;;;;;2.34;92.70;97482.88;5116673;28;19927;-72
2023/11/28 02:48:17;;;;;;;;;;;;;;;2.34;92.58;97482.88;5116594;28;19923;-72
2023/11/28 02:50:49;;;;;;;;;;;;;;;2.38;92.63;97479.47;5117082;28;19935;-71
2023/11/28 02:53:18;;;;;;;;;;;;;;;2.36;92.97;97471.09;5115805;28;19920;-71
2023/11/28 02:55:46;;;;;;;;;;;;;;;2.35;92.93;97469.44;5115423;28;20369;-71
2023/11/28 02:58:15;;;;;;;;;;;;;;;2.38;93.14;97469.41;5115269;28;19919;-71
2023/11/28 03:00:44;;;;;;;;;;;;;;;2.37;93.66;97470.28;5116857;27;19919;-71
2023/11/28 03:03:14;;;;;;;;;;;;;;;2.36;93.37;97463.56;5115661;28;20429;-71
2023/11/28 03:05:42;;;;;;;;;;;;;;;2.34;93.48;97452.66;5115290;28;19919;-71
2023/11/28 03:08:11;;;;;;;;;;;;;;;2.33;93.24;97458.53;5116319;28;19919;-71
2023/11/28 03:10:40;;;;;;;;;;;;;;;2.30;93.00;97448.50;5114957;28;20430;-71
2023/11/28 03:13:08;;;;;;;;;;;;;;;2.27;93.34;97447.66;5115440;28;19988;-72
2023/11/28 03:15:37;;;;;;;;;;;;;;;2.24;93.61;97438.44;5116278;28;19959;-70
2023/11/28 03:18:08;;;;;;;;;;;;;;;2.23;92.78;97430.94;5115511;28;20006;-71
2023/11/28 03:20:39;;;;;;;;;;;;;;;2.20;93.18;97439.31;5114913;28;20373;-71
2023/11/28 03:23:07;;;;;;;;;;;;;;;2.20;93.60;97429.25;5114901;28;19920;-71
2023/11/28 03:25:36;;;;;;;;;;;;;;;2.18;93.55;97423.41;5116384;28;19924;-71
2023/11/28 03:28:05;;;;;;;;;;;;;;;2.21;93.62;97423.34;5115412;28;20262;-71
2023/11/28 03:30:33;;;;;;;;;;;;;;;2.23;93.19;97424.19;5116082;28;20014;-71
2023/11/28 03:33:01;;;;;;;;;;;;;;;2.21;93.35;97425.88;5115925;28;19927;-71
2023/11/28 03:35:30;;;;;;;;;;;;;;;2.20;92.80;97414.16;5114998;28;19954;-71
2023/11/28 03:38:00;;;;;;;;;;;;;;;2.17;92.80;97419.19;5115859;28;19942;-71
2023/11/28 03:40:29;;;;;;;;;;;;;;;2.17;93.57;97419.19;5115757;28;19920;-71
2023/11/28 03:42:58;;;;;;;;;;;;;;;2.22;93.50;97409.97;5115690;28;19919;-71
2023/11/28 03:45:26;;;;;;;;;;;;;;;2.21;93.30;97413.28;5114837;28;19971;-71
2023/11/28 03:47:55;;;;;;;;;;;;;;;2.23;93.59;97404.06;5114211;28;19926;-71
2023/11/28 03:50:23;;;;;;;;;;;;;;;2.20;93.46;97404.09;5114232;28;19919;-71
2023/11/28 03:52:52;;;;;;;;;;;;;;;2.22;93.44;97391.50;5114457;28;19920;-70
2023/11/28 03:55:22;;;;;;;;;;;;;;;2.25;93.32;97392.34;5097667;28;19920;-71
2023/11/28 03:57:51;;;;;;;;;;;;;;;2.28;93.79;97392.28;5114553;28;20327;-71
2023/11/28 04:00:20;;;;;;;;;;;;;;;2.27;93.55;97390.66;5115884;28;19920;-71
2023/11/28 04:02:49;;;;;;;;;;;;;;;2.24;93.95;97385.63;5115628;28;20324;-71
2023/11/28 04:05:19;;;;;;;;;;;;;;;2.22;93.98;97377.25;5115861;28;19963;-70
2023/11/28 04:07:47;;;;;;;;;;;;;;;2.25;93.11;97377.25;5115254;28;19931;-71
2023/11/28 04:10:16;;;;;;;;;;;;;;;2.29;93.64;97378.03;5115097;28;20010;-71
2023/11/28 04:12:46;;;;;;;;;;;;;;;2.28;94.07;97377.19;5115395;28;19920;-71
2023/11/28 04:15:16;;;;;;;;;;;;;;;2.29;93.71;97368.81;5115432;28;20327;-71
2023/11/28 04:17:45;;;;;;;;;;;;;;;2.30;93.56;97368.00;5115433;28;19951;-71
2023/11/28 04:20:13;;;;;;;;;;;;;;;2.31;93.81;97366.28;5113916;28;19963;-71
2023/11/28 04:22:42;;;;;;;;;;;;;;;2.29;93.32;97368.81;5114942;28;20390;-71
2023/11/28 04:25:11;;;;;;;;;;;;;;;2.27;93.52;97367.16;5113758;28;19958;-71
2023/11/28 04:27:39;;;;;;;;;;;;;;;2.24;93.43;97365.50;5113714;28;19926;-71
2023/11/28 04:30:11;;;;;;;;;;;;;;;2.24;93.52;97360.47;5113667;28;19919;-71
2023/11/28 04:32:43;;;;;;;;;;;;;;;2.25;93.87;97367.19;5114748;28;19934;-71
2023/11/28 04:35:13;;;;;;;;;;;;;;;2.27;94.06;97367.16;5115160;28;19926;-71
2023/11/28 04:37:42;;;;;;;;;;;;;;;2.24;93.72;97365.50;5113893;28;19926;-71
2023/11/28 04:40:11;;;;;;;;;;;;;;;2.23;93.10;97363.00;5113625;28;19920;-71
2023/11/28 04:42:40;;;;;;;;;;;;;;;2.24;93.68;97357.94;5114904;28;19924;-71
2023/11/28 04:45:11;;;;;;;;;;;;;;;2.24;93.93;97355.44;5113709;28;19927;-71
2023/11/28 04:47:41;;;;;;;;;;;;;;;2.23;93.76;97353.75;5114644;28;19919;-71
2023/11/28 04:50:10;;;;;;;;;;;;;;;2.23;93.46;97347.91;5113353;28;20010;-71
2023/11/28 04:52:40;;;;;;;;;;;;;;;2.22;93.56;97337.00;5114806;28;20259;-71
2023/11/28 04:55:09;;;;;;;;;;;;;;;2.24;93.52;97339.50;5114392;28;19965;-72
2023/11/28 04:57:39;;;;;;;;;;;;;;;2.26;93.56;97337.81;5114775;28;19926;-72
2023/11/28 05:00:09;;;;;;;;;;;;;;;2.23;93.71;97337.84;5096734;28;19924;-71
2023/11/28 05:02:40;;;;;;;;;;;;;;;2.21;93.13;97335.31;5114365;28;19923;-72
2023/11/28 05:05:09;;;;;;;;;;;;;;;2.22;93.37;97331.13;5113865;28;19926;-71
2023/11/28 05:07:38;;;;;;;;;;;;;;;2.22;93.45;97336.16;5113188;28;19965;-71
2023/11/28 05:10:08;;;;;;;;;;;;;;;2.18;93.21;97330.31;5114847;28;19927;-72
2023/11/28 05:12:37;;;;;;;;;;;;;;;2.19;93.16;97331.97;5114398;28;19924;-71
2023/11/28 05:15:06;;;;;;;;;;;;;;;2.17;93.71;97328.63;5113043;28;19920;-72
2023/11/28 05:17:35;;;;;;;;;;;;;;;2.14;93.86;97327.81;5096523;28;20354;-71
2023/11/28 05:20:07;;;;;;;;;;;;;;;2.13;93.54;97327.00;5113628;28;19919;-72
2023/11/28 05:22:38;;;;;;;;;;;;;;;2.16;93.23;97326.16;5114636;28;19941;-72
2023/11/28 05:25:08;;;;;;;;;;;;;;;2.13;93.24;97327.00;5113343;28;20258;-72
2023/11/28 05:27:37;;;;;;;;;;;;;;;2.15;93.80;97320.28;5112995;28;20424;-71
2023/11/28 05:30:08;;;;;;;;;;;;;;;2.14;93.00;97321.09;5114119;28;20381;-71
2023/11/28 05:32:37;;;;;;;;;;;;;;;2.14;93.34;97320.25;5114480;28;19924;-71
2023/11/28 05:35:08;;;;;;;;;;;;;;;2.10;93.19;97321.97;5113230;28;19919;-71
2023/11/28 05:37:37;;;;;;;;;;;;;;;2.11;93.08;97315.28;5113323;28;19946;-72
2023/11/28 05:40:07;;;;;;;;;;;;;;;2.10;93.08;97316.94;5113538;28;19934;-71
2023/11/28 05:42:40;;;;;;;;;;;;;;;2.12;93.00;97320.28;5114115;28;19919;-71
2023/11/28 05:45:08;;;;;;;;;;;;;;;2.13;93.25;97319.44;5114314;28;19951;-72
2023/11/28 05:47:38;;;;;;;;;;;;;;;2.11;93.14;97318.63;5112836;28;20101;-72
2023/11/28 05:50:10;;;;;;;;;;;;;;;2.08;93.25;97308.56;5113057;28;19923;-72
2023/11/28 05:52:39;;;;;;;;;;;;;;;2.07;93.64;97316.94;5112760;28;19969;-72
2023/11/28 05:55:08;;;;;;;;;;;;;;;2.05;93.59;97318.66;5112934;28;20369;-72
2023/11/28 05:57:37;;;;;;;;;;;;;;;2.02;93.08;97311.09;5112748;28;19943;-71
2023/11/28 06:00:07;;;;;;;;;;;;;;;2.02;93.48;97311.09;5112768;28;19924;-72
2023/11/28 06:02:45;;;;;;;;;;;;;;;2.05;93.73;97313.63;5113018;28;19919;-72
2023/11/28 06:05:17;;;;;;;;;;;;;;;2.02;92.85;97314.47;5112801;28;20023;-71
2023/11/28 06:07:46;;;;;;;;;;;;;;;1.99;92.82;97318.69;5115286;28;20385;-72
2023/11/28 06:10:15;;;;;;;;;;;;;;;1.97;92.90;97318.69;5116260;28;19924;-72
2023/11/28 06:12:43;;;;;;;;;;;;;;;2.00;92.87;97322.88;5116295;28;19927;-72
2023/11/28 06:15:12;;;;;;;;;;;;;;;2.00;93.46;97315.31;5116502;28;19945;-72
2023/11/28 06:17:40;;;;;;;;;;;;;;;2.00;93.35;97325.38;5116451;28;19943;-72
2023/11/28 06:20:14;;;;;;;;;;;;;;;1.98;92.96;97327.06;5116541;28;19927;-72
2023/11/28 06:22:46;;;;;;;;;;;;;;;1.97;93.30;97326.22;5117271;28;20011;-72
2023/11/28 06:25:15;;;;;;;;;;;;;;;2.01;93.55;97324.53;5117568;28;19923;-73
2023/11/28 06:27:44;;;;;;;;;;;;;;;2.00;93.19;97326.22;5116047;28;19919;-72
2023/11/28 06:30:13;;;;;;;;;;;;;;;2.03;93.72;97330.41;5116314;28;19920;-73
2023/11/28 06:32:41;;;;;;;;;;;;;;;2.06;93.09;97330.38;5116014;28;20315;-72
2023/11/28 06:35:46;;;;;;;;;;;;;;;2.08;93.12;97327.84;5116213;28;19920;-73
2023/11/28 06:38:16;;;;;;;;;;;;;;;2.08;93.67;97328.69;5117061;28;19926;-72
2023/11/28 06:40:45;;;;;;;;;;;;;;;2.08;93.18;97328.69;5115704;28;19942;-72
2023/11/28 06:43:13;;;;;;;;;;;;;;;2.04;93.73;97327.03;5117082;28;20296;-72
2023/11/28 06:45:42;;;;;;;;;;;;;;;2.01;92.87;97327.06;5117087;28;19927;-72
2023/11/28 06:48:10;;;;;;;;;;;;;;;1.98;93.35;97330.44;5116554;28;19920;-72
2023/11/28 06:50:39;;;;;;;;;;;;;;;1.99;92.87;97333.78;5116692;28;19959;-72
2023/11/28 06:53:07;;;;;;;;;;;;;;;1.96;93.42;97329.59;5116958;28;19919;-72
2023/11/28 06:55:37;;;;;;;;;;;;;;;1.94;93.14;97326.22;5111322;28;20055;-73
2023/11/28 06:58:06;;;;;;;;;;;;;;;1.94;93.68;97330.44;5096311;28;19920;-72
2023/11/28 07:00:35;;;;;;;;;;;;;;;1.92;93.42;97327.13;5075983;28;19921;-72
2023/11/28 07:03:04;;;;;;;;;;;;;;;1.94;93.59;97320.41;5091383;28;20362;-72
2023/11/28 07:05:32;;;;;;;;;;;;;;;1.97;93.80;97331.25;5125662;27;19942;-73
2023/11/28 07:08:02;;;;;;;;;;;;;;;1.99;93.39;97328.75;5075772;28;19920;-72
2023/11/28 07:10:31;;;;;;;;;;;;;;;2.02;93.71;97329.56;5075796;28;19920;-72
2023/11/28 07:13:01;;;;;;;;;;;;;;;2.07;94.02;97321.97;5076610;28;19927;-71
2023/11/28 07:15:30;;;;;;;;;;;;;;;2.05;93.31;97328.69;5101173;28;20384;-72
2023/11/28 07:18:00;;;;;;;;;;;;;;;2.06;93.53;97325.38;5116161;28;19972;-72
2023/11/28 07:20:29;;;;;;;;;;;;;;;2.12;93.80;97322.78;5115308;28;19945;-71
2023/11/28 07:22:58;;;;;;;;;;;;;;;2.13;93.63;97311.91;5114750;28;19924;-72
2023/11/28 07:25:27;;;;;;;;;;;;;;;2.14;93.42;97318.59;5116356;28;19927;-72
2023/11/28 07:27:56;;;;;;;;;;;;;;;2.10;93.11;97321.97;5116412;28;19920;-71
2023/11/28 07:30:26;;;;;;;;;;;;;;;2.08;93.07;97313.59;5115871;28;19920;-71
2023/11/28 07:32:55;;;;;;;;;;;;;;;2.04;93.24;97312.78;5113506;28;19926;-72
2023/11/28 07:35:24;;;;;;;;;;;;;;;2.02;93.08;97311.94;5094654;28;19990;-71
2023/11/28 07:37:52;;;;;;;;;;;;;;;1.99;93.26;97308.63;5095716;28;19955;-71
2023/11/28 07:40:21;;;;;;;;;;;;;;;2.00;93.69;97300.22;5095828;28;20022;-71
2023/11/28 07:42:50;;;;;;;;;;;;;;;2.00;93.21;97296.03;5093230;28;20392;-71
2023/11/28 07:45:18;;;;;;;;;;;;;;;2.00;93.17;97290.16;5108692;28;19919;-72
2023/11/28 07:47:48;;;;;;;;;;;;;;;1.99;93.35;97293.53;5115572;28;19927;-71
2023/11/28 07:50:17;;;;;;;;;;;;;;;1.98;93.68;97284.31;5113352;28;19920;-71
2023/11/28 07:52:45;;;;;;;;;;;;;;;1.97;93.29;97291.03;5115376;28;19919;-71
2023/11/28 07:55:14;;;;;;;;;;;;;;;1.96;93.38;97278.47;5115508;28;19927;-71
2023/11/28 07:57:42;;;;;;;;;;;;;;;1.97;93.39;97286.00;5115319;28;19926;-72
2023/11/28 08:00:11;;;;;;;;;;;;;;;2.04;93.82;97281.75;5113701;28;19924;-71
2023/11/28 08:02:42;;;;;;;;;;;;;;;2.09;93.71;97280.03;5115489;28;20333;-73
2023/11/28 08:05:13;;;;;;;;;;;;;;;2.16;93.90;97281.69;5115147;28;20003;-72
2023/11/28 08:07:46;;;;;;;;;;;;;;;2.23;93.52;97278.28;5114059;28;19920;-71
2023/11/28 08:10:14;;;;;;;;;;;;;;;2.24;93.40;97274.91;5115081;28;19965;-72
2023/11/28 08:12:43;;;;;;;;;;;;;;;2.25;93.60;97265.69;5095334;28;19926;-72
2023/11/28 08:15:12;;;;;;;;;;;;;;;2.30;93.56;97269.03;5113923;28;19930;-71
2023/11/28 08:17:42;;;;;;;;;;;;;;;2.35;94.15;97262.28;5105437;28;20457;-72
2023/11/28 08:20:11;;;;;;;;;;;;;;;2.40;93.68;97265.59;5094710;28;19931;-72
2023/11/28 08:22:42;;;;;;;;;;;;;;;2.40;94.26;97261.38;5094544;28;19928;-71
2023/11/28 08:25:10;;;;;;;;;;;;;;;2.41;93.66;97258.03;5092585;28;20014;-71
2023/11/28 08:27:39;;;;;;;;;;;;;;;2.42;94.18;97259.72;5094068;28;19927;-72
2023/11/28 08:30:08;;;;;;;;;;;;;;;2.44;93.60;97263.03;5094050;28;19920;-72
2023/11/28 08:32:36;;;;;;;;;;;;;;;2.45;93.74;97267.22;5094519;28;19927;-71
2023/11/28 08:35:06;;;;;;;;;;;;;;;2.45;94.41;97262.19;5096640;28;19924;-70
2023/11/28 08:37:34;;;;;;;;;;;;;;;2.46;94.11;97261.34;5113774;28;19920;-70
2023/11/28 08:40:05;;;;;;;;;;;;;;;2.49;94.16;97261.31;5115005;28;19971;-70
2023/11/28 08:42:34;;;;;;;;;;;;;;;2.52;94.10;97258.75;5113552;28;19919;-70
2023/11/28 08:45:03;;;;;;;;;;;;;;;2.53;94.44;97265.47;5113120;28;19920;-70
2023/11/28 08:47:31;;;;;;;;;;;;;;;2.54;94.26;97257.06;5114340;28;19920;-70
2023/11/28 08:50:03;;;;;;;;;;;;;;;2.57;94.21;97253.69;5114547;28;20369;-70
2023/11/28 08:52:32;;;;;;;;;;;;;;;2.57;94.35;97259.56;5114430;28;19927;-70
2023/11/28 08:55:01;;;;;;;;;;;;;;;2.56;93.93;97262.94;5113152;28;19926;-70
2023/11/28 08:57:34;;;;;;;;;;;;;;;2.53;94.23;97257.94;5114988;28;19926;-70
2023/11/28 09:00:03;;;;;;;;;;;;;;;2.52;93.54;97261.28;5114767;28;19958;-70
2023/11/28 09:02:32;;;;;;;;;;;;;;;2.57;93.78;97259.56;5114398;28;20270;-70
2023/11/28 09:05:01;;;;;;;;;;;;;;;2.62;94.37;97257.00;5111843;28;19968;-70
2023/11/28 09:07:29;;;;;;;;;;;;;;;2.64;93.61;97258.66;5114331;28;19968;-70
2023/11/28 09:09:58;;;;;;;;;;;;;;;2.63;94.33;97264.56;5114340;28;20014;-70
2023/11/28 09:12:26;;;;;;;;;;;;;;;2.61;94.04;97257.88;5114444;28;19927;-70
2023/11/28 09:14:56;;;;;;;;;;;;;;;2.65;94.19;97256.97;5112605;28;20449;-70
2023/11/28 09:17:25;;;;;;;;;;;;;;;2.66;94.34;97258.66;5114340;28;19927;-71
2023/11/28 09:19:53;;;;;;;;;;;;;;;2.67;93.83;97256.13;5114697;28;20364;-70
2023/11/28 09:22:22;;;;;;;;;;;;;;;2.64;93.57;97253.63;5114544;28;19926;-70
2023/11/28 09:24:51;;;;;;;;;;;;;;;2.67;94.22;97243.53;5111602;28;20384;-70
2023/11/28 09:27:19;;;;;;;;;;;;;;;2.66;93.80;97254.44;5113347;28;19920;-71
2023/11/28 09:29:48;;;;;;;;;;;;;;;2.66;94.28;97246.88;5114140;28;19951;-70
2023/11/28 09:32:20;;;;;;;;;;;;;;;2.67;94.04;97241.03;5114039;28;20018;-70
2023/11/28 09:34:49;;;;;;;;;;;;;;;2.69;94.12;97239.31;5112914;28;20031;-70
2023/11/28 09:37:17;;;;;;;;;;;;;;;2.68;94.13;97241.84;5102254;28;19920;-70
2023/11/28 09:39:46;;;;;;;;;;;;;;;2.68;93.66;97237.66;5104112;28;19920;-70
2023/11/28 09:42:16;;;;;;;;;;;;;;;2.71;94.16;97236.81;5116276;28;20365;-71
2023/11/28 09:44:46;;;;;;;;;;;;;;;2.70;93.44;97235.97;5115167;28;19923;-72
2023/11/28 09:47:17;;;;;;;;;;;;;;;2.71;94.02;97232.56;5093882;28;19954;-70
2023/11/28 09:49:50;;;;;;;;;;;;;;;2.72;93.72;97239.28;5095442;28;19920;-72
2023/11/28 09:52:21;;;;;;;;;;;;;;;2.70;94.02;97235.97;5101437;28;19965;-71
2023/11/28 09:54:50;;;;;;;;;;;;;;;2.71;94.11;97231.78;5118172;28;20366;-72
2023/11/28 09:57:18;;;;;;;;;;;;;;;2.78;93.76;97223.31;5117524;28;19926;-72
2023/11/28 09:59:50;;;;;;;;;;;;;;;2.81;94.24;97227.47;5117660;28;20010;-72
2023/11/28 10:02:19;;;;;;;;;;;;;;;2.89;93.83;97225.69;5115340;28;20022;-72
2023/11/28 10:05:03;;;;;;;;;;;;;;;2.98;93.98;97225.59;5117917;28;19920;-72
2023/11/28 10:07:33;;;;;;;;;;;;;;;3.03;93.93;97218.81;5117897;28;19926;-72
2023/11/28 10:10:07;;;;;;;;;;;;;;;3.07;93.52;97223.00;5117613;28;20003;-72
2023/11/28 10:12:36;;;;;;;;;;;;;;;3.10;93.51;97215.38;5105223;28;19943;-72
2023/11/28 10:15:11;;;;;;;;;;;;;;;3.11;93.57;97209.50;5111862;28;19927;-72
2023/11/28 10:17:40;;;;;;;;;;;;;;;3.05;93.38;97217.13;5117420;28;19998;-73
2023/11/28 10:20:15;;;;;;;;;;;;;;;3.07;93.53;97207.88;5117360;28;19973;-72
2023/11/28 10:22:50;;;;;;;;;;;;;;;3.04;93.50;97202.88;5105925;28;19943;-72
2023/11/28 10:25:20;;;;;;;;;;;;;;;3.04;93.70;97200.34;5097071;28;19920;-72
2023/11/28 10:27:49;;;;;;;;;;;;;;;3.03;93.48;97193.63;5097412;28;20342;-72
2023/11/28 10:30:21;;;;;;;;;;;;;;;3.03;93.61;97201.19;5097056;28;19993;-72
2023/11/28 10:32:50;;;;;;;;;;;;;;;3.04;93.87;97195.31;5094653;28;19927;-71
2023/11/28 10:35:20;;;;;;;;;;;;;;;3.08;93.92;97200.31;5096167;28;19920;-72
2023/11/28 10:37:49;;;;;;;;;;;;;;;3.07;93.84;97193.59;5095651;28;19942;-72
2023/11/28 10:40:18;;;;;;;;;;;;;;;3.08;93.72;97191.91;5094617;28;19920;-72
2023/11/28 10:42:46;;;;;;;;;;;;;;;3.07;93.17;97193.59;5096301;28;19919;-73
2023/11/28 10:45:19;;;;;;;;;;;;;;;3.10;93.42;97201.13;5096318;28;19920;-72
2023/11/28 10:47:48;;;;;;;;;;;;;;;3.11;93.25;97192.72;5111420;28;19920;-73
2023/11/28 10:50:17;;;;;;;;;;;;;;;3.04;93.11;97190.28;5103081;28;19921;-73
2023/11/28 10:52:48;;;;;;;;;;;;;;;3.07;93.67;97186.03;5080777;28;20361;-73
2023/11/28 10:55:19;;;;;;;;;;;;;;;3.10;93.13;97185.16;5117015;28;19934;-73
2023/11/28 10:57:52;;;;;;;;;;;;;;;3.13;93.08;97185.13;5115364;28;20326;-73
2023/11/28 11:00:26;;;;;;;;;;;;;;;3.11;93.38;97191.88;5095922;28;19924;-74
2023/11/28 11:02:57;;;;;;;;;;;;;;;3.10;93.11;97191.03;5089910;28;19920;-73
2023/11/28 11:05:29;;;;;;;;;;;;;;;3.08;93.45;97191.91;5114351;28;20316;-72
2023/11/28 11:07:59;;;;;;;;;;;;;;;3.15;93.09;97185.94;5116867;28;19927;-72
2023/11/28 11:10:30;;;;;;;;;;;;;;;3.16;93.11;97190.13;5116692;28;19926;-71
2023/11/28 11:13:04;;;;;;;;;;;;;;;3.15;92.68;97190.97;5104703;28;19932;-71
2023/11/28 11:15:36;;;;;;;;;;;;;;;3.16;92.70;97188.47;5114977;28;20415;-72
2023/11/28 11:18:11;;;;;;;;;;;;;;;3.18;93.14;97188.44;5116523;28;20361;-72
2023/11/28 11:20:40;;;;;;;;;;;;;;;3.24;92.65;97188.34;5116438;28;20410;-71
2023/11/28 11:23:13;;;;;;;;;;;;;;;3.26;93.12;97186.66;5115046;28;19970;-72
2023/11/28 11:25:42;;;;;;;;;;;;;;;3.24;92.66;97184.13;5116212;28;19971;-72
2023/11/28 11:28:10;;;;;;;;;;;;;;;3.26;92.75;97186.66;5115834;28;20303;-71
2023/11/28 11:30:42;;;;;;;;;;;;;;;3.33;93.01;97188.25;5116163;28;20426;-71
2023/11/28 11:33:12;;;;;;;;;;;;;;;3.35;92.44;97191.59;5112984;28;19923;-71
2023/11/28 11:35:52;;;;;;;;;;;;;;;3.34;92.35;97189.91;5114658;28;19924;-72
2023/11/28 11:38:28;;;;;;;;;;;;;;;3.39;92.91;97191.53;5114739;28;19927;-71
2023/11/28 11:40:58;;;;;;;;;;;;;;;3.46;92.49;97192.28;5115713;28;19941;-71
2023/11/28 11:43:28;;;;;;;;;;;;;;;3.49;92.36;97189.72;5108125;28;19927;-71
2023/11/28 11:46:06;;;;;;;;;;;;;;;3.49;92.67;97194.75;5095360;28;19923;-71
2023/11/28 11:48:35;;;;;;;;;;;;;;;3.51;92.82;97190.53;5095063;28;19920;-71
2023/11/28 11:51:05;;;;;;;;;;;;;;;3.45;92.59;97193.13;5093183;28;19924;-71
2023/11/28 11:53:37;;;;;;;;;;;;;;;3.42;92.81;97199.88;5095215;28;19927;-71
2023/11/28 11:56:07;;;;;;;;;;;;;;;3.35;92.30;97191.59;5095794;28;19927;-72
2023/11/28 11:58:35;;;;;;;;;;;;;;;3.33;92.17;97203.38;5095305;28;19923;-71
2023/11/28 12:01:04;;;;;;;;;;;;;;;3.31;92.27;97200.84;5107525;28;20003;-71
2023/11/28 12:03:33;;;;;;;;;;;;;;;3.33;92.32;97199.19;5113948;28;20385;-71
2023/11/28 12:06:02;;;;;;;;;;;;;;;3.35;92.57;97199.13;5114298;28;20000;-71
2023/11/28 12:08:31;;;;;;;;;;;;;;;3.38;92.22;97196.59;5114191;28;20365;-71
2023/11/28 12:11:11;;;;;;;;;;;;;;;3.39;92.39;97204.13;5113407;28;19996;-71
2023/11/28 12:13:40;;;;;;;;;;;;;;;3.43;92.42;97199.06;5114019;28;19980;-71
2023/11/28 12:16:10;;;;;;;;;;;;;;;3.44;91.90;97208.25;5115165;28;19919;-71
2023/11/28 12:18:39;;;;;;;;;;;;;;;3.46;92.26;97209.06;5115709;28;19919;-71
2023/11/28 12:21:08;;;;;;;;;;;;;;;3.44;91.96;97210.78;5107121;27;19919;-71
2023/11/28 12:23:37;;;;;;;;;;;;;;;3.42;92.24;97213.34;5097258;28;19926;-71
2023/11/28 12:26:05;;;;;;;;;;;;;;;3.44;92.36;97216.66;5115183;28;19977;-71
2023/11/28 12:28:35;;;;;;;;;;;;;;;3.54;92.32;97222.44;5114982;28;19919;-72
2023/11/28 12:31:04;;;;;;;;;;;;;;;3.58;92.00;97224.88;5111756;28;19923;-71
2023/11/28 12:33:35;;;;;;;;;;;;;;;3.54;92.37;97227.47;5114827;28;19920;-70
2023/11/28 12:43:02;;;;;;;;;;;;;;;3.51;91.76;97228.34;5012494;28;19979;-72
2023/11/28 12:45:33;;;;;;;;;;;;;;;3.55;91.93;97229.97;5013220;28;19944;-72
2023/11/28 12:48:02;;;;;;;;;;;;;;;3.62;92.07;97231.56;4995976;28;19929;-72
2023/11/28 12:50:33;;;;;;;;;;;;;;;3.67;91.95;97229.78;5012529;28;20461;-72
2023/11/28 12:53:01;;;;;;;;;;;;;;;3.72;92.01;97233.09;5011078;28;19948;-71
2023/11/28 12:55:31;;;;;;;;;;;;;;;3.70;92.04;97229.75;5012062;28;19921;-71
2023/11/28 12:58:00;;;;;;;;;;;;;;;3.66;91.81;97233.19;5011833;28;20442;-71
2023/11/28 13:00:28;;;;;;;;;;;;;;;3.67;91.61;97229.00;5011855;28;19922;-71
2023/11/28 13:02:59;;;;;;;;;;;;;;;3.68;91.84;97231.47;5018692;28;19928;-71
2023/11/28 13:05:29;;;;;;;;;;;;;;;3.69;91.67;97238.19;5032109;28;19921;-71
2023/11/28 13:07:58;;;;;;;;;;;;;;;3.73;91.57;97239.81;5030048;28;19967;-71
2023/11/28 13:10:26;;;;;;;;;;;;;;;3.75;91.74;97243.16;5011094;28;19921;-71
2023/11/28 13:12:55;;;;;;;;;;;;;;;3.69;91.50;97248.28;4992593;28;19945;-71
2023/11/28 13:15:39;;;;;;;;;;;;;;;3.63;90.98;97238.28;5001176;28;19948;-71
2023/11/28 13:18:09;;;;;;;;;;;;;;;3.65;91.32;97245.81;5035656;28;19921;-71